Time;durP1;ratioP1;P1;durP2;ratioP2;P2;SDS_P1;SDS_P2;PMS_P1;PMS_P2;Temp;Humidity;BMP_temperature;BMP_pressure;BME280_temperature;BME280_humidity;BME280_pressure;Samples;Min_cycle;Max_cycle;Signal;HPM_P1;HPM_P2
2022/12/15 00:38:43;;;;;;;14.73;11.63;;;17.30;72.70;;;;;;4176876;28;20200;-76
2022/12/15 00:40:45;;;;;;;13.38;10.23;;;17.30;72.40;;;;;;4171197;28;20262;-76
2022/12/15 00:42:48;;;;;;;15.30;11.05;;;17.30;72.40;;;;;;4176015;28;20216;-76
2022/12/15 00:44:51;;;;;;;13.23;11.50;;;17.30;72.40;;;;;;4176660;28;20213;-76
2022/12/15 00:46:55;;;;;;;13.32;10.90;;;17.30;72.50;;;;;;4170960;28;20270;-76
2022/12/15 00:48:58;;;;;;;14.10;11.25;;;17.30;72.40;;;;;;4171932;28;20215;-76
2022/12/15 00:50:59;;;;;;;13.10;10.75;;;17.20;72.30;;;;;;4176285;28;20266;-76
2022/12/15 01:21:08;;;;;;;14.68;12.07;;;17.10;72.10;;;;;;4180579;28;20607;-76
2022/12/15 01:23:10;;;;;;;11.85;10.32;;;17.10;72.10;;;;;;4177540;28;20216;-76
2022/12/15 01:25:15;;;;;;;13.82;11.13;;;17.10;72.20;;;;;;4179004;28;20258;-76
2022/12/15 01:27:18;;;;;;;14.77;11.70;;;17.10;71.70;;;;;;4180407;28;20285;-76
2022/12/15 01:29:20;;;;;;;13.85;11.27;;;17.10;72.20;;;;;;4179961;28;20289;-76
2022/12/15 01:31:22;;;;;;;14.45;11.15;;;17.10;72.10;;;;;;4179648;28;20262;-76
2022/12/15 01:33:25;;;;;;;15.40;11.35;;;17.10;72.20;;;;;;4179223;28;20239;-76
2022/12/15 01:35:27;;;;;;;12.75;11.07;;;17.10;72.20;;;;;;4179580;28;20216;-76
2022/12/15 01:37:30;;;;;;;13.07;10.70;;;17.10;72.00;;;;;;4180572;28;20212;-76
2022/12/15 01:41:50;;;;;;;14.35;10.55;;;17.10;72.00;;;;;;4178160;28;20837;-76
2022/12/15 01:43:52;;;;;;;14.38;10.15;;;17.10;71.90;;;;;;4179873;28;20219;-76
2022/12/15 01:46:03;;;;;;;14.02;10.55;;;17.00;72.10;;;;;;4176165;28;20220;-76
2022/12/15 01:48:09;;;;;;;14.43;11.38;;;17.00;72.00;;;;;;4177586;28;20212;-76
2022/12/15 01:50:14;;;;;;;12.23;10.80;;;17.00;72.00;;;;;;4173767;28;20262;-76
2022/12/15 01:52:17;;;;;;;14.40;11.23;;;17.00;71.90;;;;;;4179058;28;20755;-76
2022/12/15 01:54:23;;;;;;;12.95;10.85;;;17.00;71.70;;;;;;4179370;28;20239;-76
2022/12/15 01:56:28;;;;;;;14.15;11.35;;;17.00;72.00;;;;;;4177335;28;20223;-76
2022/12/15 01:58:32;;;;;;;13.57;11.30;;;17.00;72.00;;;;;;4178672;28;20216;-76
2022/12/15 02:00:35;;;;;;;13.25;10.95;;;17.00;72.00;;;;;;4177259;28;20270;-76
2022/12/15 02:02:38;;;;;;;14.18;11.13;;;17.00;72.40;;;;;;4179600;28;20212;-76
2022/12/15 02:04:41;;;;;;;13.55;11.07;;;17.00;71.90;;;;;;4179525;28;20212;-77
2022/12/15 02:06:43;;;;;;;14.15;11.65;;;17.00;72.10;;;;;;4178635;28;20261;-77
2022/12/15 02:08:48;;;;;;;12.27;9.95;;;17.00;72.00;;;;;;4177823;28;20250;-77
2022/12/15 02:11:07;;;;;;;14.77;11.52;;;16.90;71.90;;;;;;4178867;28;20220;-76
2022/12/15 02:13:17;;;;;;;12.95;10.77;;;17.00;72.00;;;;;;4179826;28;20269;-77
2022/12/15 02:15:27;;;;;;;13.27;11.30;;;17.00;72.00;;;;;;4178451;28;20220;-76
2022/12/15 02:17:37;;;;;;;15.80;11.68;;;16.90;71.80;;;;;;4179502;28;20276;-76
2022/12/15 02:20:22;;;;;;;14.75;10.95;;;16.90;71.80;;;;;;4180084;28;20606;-76
2022/12/15 02:22:34;;;;;;;11.90;10.05;;;16.90;71.90;;;;;;4171757;28;20215;-76
2022/12/15 02:25:17;;;;;;;12.50;10.23;;;16.90;71.60;;;;;;4180110;28;20216;-76
2022/12/15 02:27:46;;;;;;;13.60;10.50;;;16.90;71.90;;;;;;4176517;28;20204;-76
2022/12/15 02:30:14;;;;;;;13.52;10.40;;;16.90;71.70;;;;;;4165369;28;20293;-76
2022/12/15 02:32:21;;;;;;;13.35;10.65;;;16.90;71.30;;;;;;4172560;28;20277;-76
2022/12/15 02:34:33;;;;;;;13.55;10.73;;;16.90;71.50;;;;;;4180061;28;20618;-76
2022/12/15 02:36:39;;;;;;;12.13;9.98;;;16.90;71.60;;;;;;4171439;28;20224;-76
2022/12/15 02:38:41;;;;;;;12.63;10.13;;;16.90;71.60;;;;;;4174584;28;20649;-76
2022/12/15 02:40:44;;;;;;;11.93;10.73;;;16.80;71.60;;;;;;4174696;28;20219;-76
2022/12/15 02:42:55;;;;;;;13.00;10.50;;;16.80;71.30;;;;;;4179637;28;20216;-76
2022/12/15 02:45:02;;;;;;;13.95;10.82;;;16.80;71.70;;;;;;4176395;28;20281;-76
2022/12/15 02:47:21;;;;;;;12.73;10.77;;;16.80;71.70;;;;;;4179569;28;20215;-76
2022/12/15 02:49:35;;;;;;;14.82;11.15;;;16.80;71.00;;;;;;4173524;28;20323;-76
2022/12/15 02:51:51;;;;;;;11.75;10.30;;;16.80;71.50;;;;;;4174968;28;20212;-76
2022/12/15 02:54:32;;;;;;;13.18;10.70;;;16.80;71.40;;;;;;4168539;28;20570;-76
2022/12/15 02:56:42;;;;;;;12.55;10.45;;;16.80;71.80;;;;;;4168293;28;20209;-76
2022/12/15 02:58:53;;;;;;;12.85;10.73;;;16.80;71.50;;;;;;4169399;28;20220;-76
2022/12/15 03:01:00;;;;;;;12.98;10.38;;;16.80;71.60;;;;;;4175679;28;20256;-76
2022/12/15 03:03:04;;;;;;;12.02;10.00;;;16.80;71.40;;;;;;4173810;28;20216;-76
2022/12/15 03:05:08;;;;;;;13.38;10.73;;;16.80;71.50;;;;;;4172948;28;20216;-76
2022/12/15 03:07:10;;;;;;;12.57;10.52;;;16.80;71.70;;;;;;4171987;28;20220;-76
2022/12/15 03:09:13;;;;;;;13.40;10.50;;;16.80;71.50;;;;;;4175096;28;20215;-76
2022/12/15 03:11:15;;;;;;;14.25;10.65;;;16.80;71.00;;;;;;4176904;28;20258;-76
2022/12/15 03:13:17;;;;;;;13.50;10.75;;;16.80;71.00;;;;;;4175966;28;20235;-76
2022/12/15 03:15:20;;;;;;;14.52;10.85;;;16.80;71.10;;;;;;4171610;28;20251;-76
2022/12/15 03:17:22;;;;;;;13.20;11.00;;;16.70;71.40;;;;;;4175252;28;20301;-76
2022/12/15 03:19:26;;;;;;;12.93;10.77;;;16.70;71.00;;;;;;4173605;28;20216;-76
2022/12/15 03:21:29;;;;;;;12.48;10.55;;;16.70;71.20;;;;;;4166831;28;20224;-76
2022/12/15 03:23:32;;;;;;;13.13;10.90;;;16.70;71.10;;;;;;4175198;28;20270;-76
2022/12/15 03:25:35;;;;;;;12.68;10.60;;;16.70;71.50;;;;;;4175217;28;20281;-76
2022/12/15 03:27:37;;;;;;;13.25;10.02;;;16.70;70.90;;;;;;4169097;28;20235;-76
2022/12/15 03:29:40;;;;;;;12.40;10.32;;;16.70;70.90;;;;;;4177911;28;20281;-76
2022/12/15 03:31:43;;;;;;;11.75;10.13;;;16.70;71.10;;;;;;4175913;28;20224;-76
2022/12/15 03:33:45;;;;;;;11.05;9.80;;;16.70;70.90;;;;;;4176796;28;20293;-76
2022/12/15 03:35:50;;;;;;;11.80;9.70;;;16.70;71.10;;;;;;4174803;28;20216;-76
2022/12/15 03:37:52;;;;;;;11.45;10.25;;;16.70;71.10;;;;;;4174934;28;20833;-76
2022/12/15 03:39:54;;;;;;;12.02;9.98;;;16.70;71.00;;;;;;4176111;28;20277;-76
2022/12/15 03:41:57;;;;;;;12.57;10.23;;;16.70;70.70;;;;;;4177193;28;20223;-76
2022/12/15 03:43:59;;;;;;;12.85;10.70;;;16.70;70.90;;;;;;4174448;28;20616;-76
2022/12/15 03:46:01;;;;;;;12.38;10.15;;;16.70;70.80;;;;;;4177447;28;20215;-76
2022/12/15 03:48:04;;;;;;;13.45;10.60;;;16.60;70.60;;;;;;4174033;28;20281;-76
2022/12/15 03:50:07;;;;;;;12.95;10.75;;;16.60;70.90;;;;;;4174556;28;20212;-76
2022/12/15 03:52:11;;;;;;;12.97;10.87;;;16.70;71.00;;;;;;4175852;28;20338;-76
2022/12/15 03:54:14;;;;;;;12.30;10.52;;;16.70;70.90;;;;;;4176311;28;20715;-76
2022/12/15 03:56:17;;;;;;;13.63;10.77;;;16.70;70.80;;;;;;4175685;28;20273;-76
2022/12/15 03:58:19;;;;;;;12.32;10.60;;;16.60;71.10;;;;;;4173227;28;20211;-76
2022/12/15 04:00:24;;;;;;;14.57;11.13;;;16.60;70.80;;;;;;4177062;28;20258;-76
2022/12/15 04:02:26;;;;;;;12.88;10.90;;;16.60;71.00;;;;;;4176965;28;20215;-76
2022/12/15 04:04:29;;;;;;;13.40;10.60;;;16.60;70.90;;;;;;4175996;28;20333;-76
2022/12/15 04:06:31;;;;;;;13.25;10.05;;;16.60;70.80;;;;;;4174862;28;20261;-76
2022/12/15 04:08:35;;;;;;;12.95;11.15;;;16.60;70.60;;;;;;4174186;28;20213;-76
2022/12/15 04:10:37;;;;;;;12.57;10.38;;;16.60;70.90;;;;;;4174408;28;20629;-76
2022/12/15 04:12:41;;;;;;;11.38;9.88;;;16.60;70.50;;;;;;4176843;28;20265;-76
2022/12/15 04:14:44;;;;;;;12.23;10.10;;;16.60;70.90;;;;;;4175792;28;20236;-76
2022/12/15 04:16:46;;;;;;;12.95;10.60;;;16.60;71.50;;;;;;4175490;28;20709;-76
2022/12/15 04:20:07;;;;;;;12.73;9.93;;;16.60;71.00;;;;;;4177223;28;20273;-76
2022/12/15 04:21:11;;;;;;;12.75;10.43;;;16.60;70.80;;;;;;4174013;28;21524;-76
2022/12/15 04:23:13;;;;;;;12.50;10.83;;;16.60;70.70;;;;;;4174801;28;20260;-76
2022/12/15 05:33:05;;;;;;;11.33;9.93;;;16.30;70.50;;;;;;4176575;28;20255;-76
2022/12/15 05:35:08;;;;;;;11.93;9.60;;;16.30;70.10;;;;;;4174786;28;20684;-76
2022/12/15 05:37:10;;;;;;;11.82;10.07;;;16.30;70.10;;;;;;4174004;28;20615;-76
2022/12/15 05:39:13;;;;;;;11.98;9.70;;;16.30;70.50;;;;;;4174488;28;20217;-76
2022/12/15 05:41:15;;;;;;;12.27;10.40;;;16.30;69.90;;;;;;4176131;28;20220;-76
2022/12/15 05:43:17;;;;;;;10.85;9.18;;;16.30;70.40;;;;;;4175776;28;20212;-76
2022/12/15 05:45:20;;;;;;;11.00;9.87;;;16.30;70.60;;;;;;4175992;28;20204;-76
2022/12/15 05:47:23;;;;;;;13.55;9.43;;;16.30;70.50;;;;;;4174776;28;20723;-76
2022/12/15 05:49:26;;;;;;;11.70;10.02;;;16.30;70.20;;;;;;4176144;28;20676;-76
2022/12/15 05:51:28;;;;;;;11.07;9.70;;;16.30;70.20;;;;;;4173864;28;20278;-76
2022/12/15 05:53:31;;;;;;;13.23;10.30;;;16.40;69.20;;;;;;4172167;28;20771;-76
2022/12/15 05:55:33;;;;;;;13.40;9.90;;;16.40;68.50;;;;;;4177707;28;20619;-76
2022/12/15 05:57:35;;;;;;;11.02;9.57;;;16.30;68.00;;;;;;4175449;28;20220;-76
2022/12/15 05:59:38;;;;;;;12.37;9.43;;;16.30;68.00;;;;;;4175783;28;20208;-76
2022/12/15 06:01:40;;;;;;;12.63;9.87;;;16.30;67.90;;;;;;4178960;28;20685;-76
2022/12/15 06:03:44;;;;;;;12.35;9.65;;;16.30;68.50;;;;;;4176331;28;20224;-76
2022/12/15 06:05:46;;;;;;;11.98;9.93;;;16.40;69.10;;;;;;4177847;28;20228;-76
2022/12/15 06:07:48;;;;;;;12.02;9.50;;;16.40;69.20;;;;;;4178470;28;20220;-76
2022/12/15 06:09:51;;;;;;;11.30;9.65;;;16.50;69.30;;;;;;4177906;28;20211;-76
2022/12/15 06:11:53;;;;;;;11.93;9.38;;;16.50;69.10;;;;;;4175489;28;20266;-76
2022/12/15 06:13:57;;;;;;;11.88;9.52;;;16.50;69.40;;;;;;4179118;28;20349;-76
2022/12/15 06:16:01;;;;;;;14.25;9.68;;;16.60;69.10;;;;;;4175740;28;20223;-76
2022/12/15 06:18:04;;;;;;;11.73;9.70;;;16.60;69.30;;;;;;4177407;28;20208;-76
2022/12/15 06:20:08;;;;;;;10.63;9.10;;;16.60;69.20;;;;;;4176566;28;20220;-76
2022/12/15 06:22:11;;;;;;;10.85;8.98;;;16.70;69.50;;;;;;4177677;28;20309;-76
2022/12/15 06:24:14;;;;;;;11.10;9.15;;;16.70;69.00;;;;;;4178029;28;20215;-76
2022/12/15 06:26:19;;;;;;;11.15;9.32;;;16.80;69.50;;;;;;4179124;28;20219;-76
2022/12/15 06:28:22;;;;;;;12.80;9.27;;;16.70;69.90;;;;;;4177032;28;20309;-76
2022/12/15 06:30:25;;;;;;;12.65;9.57;;;16.70;69.80;;;;;;4177905;28;20208;-76
2022/12/15 06:32:27;;;;;;;11.43;8.85;;;16.80;69.50;;;;;;4177135;28;20579;-76
2022/12/15 06:34:30;;;;;;;11.45;9.50;;;16.80;69.70;;;;;;4177867;28;20318;-76
2022/12/15 06:36:37;;;;;;;10.57;8.88;;;16.80;70.70;;;;;;4178638;28;20220;-76
2022/12/15 06:38:43;;;;;;;12.25;9.38;;;16.80;69.70;;;;;;4173560;28;20262;-76
2022/12/15 06:40:45;;;;;;;13.15;9.75;;;16.90;69.80;;;;;;4175715;28;20220;-76
2022/12/15 06:42:47;;;;;;;10.73;8.77;;;16.90;70.10;;;;;;4177620;28;20270;-76
2022/12/15 06:44:50;;;;;;;11.85;10.07;;;16.90;70.10;;;;;;4174575;28;20216;-76
2022/12/15 06:46:52;;;;;;;10.73;9.30;;;16.90;70.10;;;;;;4173932;28;20258;-76
2022/12/15 06:48:54;;;;;;;11.45;9.40;;;16.90;70.50;;;;;;4177241;28;20714;-76
2022/12/15 06:51:02;;;;;;;11.18;9.38;;;17.00;70.80;;;;;;4173186;28;20270;-76
2022/12/15 06:53:06;;;;;;;10.43;9.27;;;17.00;70.60;;;;;;4177010;28;20211;-76
2022/12/15 06:55:09;;;;;;;12.63;9.50;;;17.00;70.40;;;;;;4174983;28;20767;-77
2022/12/15 06:57:11;;;;;;;11.10;9.10;;;17.00;72.10;;;;;;4178113;28;20223;-77
2022/12/15 06:59:13;;;;;;;10.80;9.10;;;17.00;71.00;;;;;;4177312;28;20261;-76
2022/12/15 07:01:17;;;;;;;10.38;8.88;;;17.10;71.00;;;;;;4178047;28;20258;-76
2022/12/15 07:03:20;;;;;;;10.18;9.07;;;17.00;71.70;;;;;;4174785;28;20221;-76
2022/12/15 07:05:22;;;;;;;11.05;9.25;;;17.10;72.20;;;;;;4176647;28;20208;-76
2022/12/15 07:07:33;;;;;;;9.95;8.88;;;17.10;72.20;;;;;;4176297;28;20667;-76
2022/12/15 07:09:37;;;;;;;11.05;8.75;;;17.10;72.10;;;;;;4175133;28;20322;-76
2022/12/15 07:11:40;;;;;;;11.80;8.98;;;17.10;71.90;;;;;;4177962;28;20219;-76
2022/12/15 07:13:43;;;;;;;9.88;8.48;;;17.10;72.00;;;;;;4175183;28;20656;-76
2022/12/15 07:15:48;;;;;;;9.23;8.25;;;17.10;72.80;;;;;;4177290;28;20223;-76
2022/12/15 07:17:54;;;;;;;10.25;9.02;;;17.10;73.50;;;;;;4175509;28;20325;-76
2022/12/15 07:20:02;;;;;;;10.85;8.70;;;17.10;73.70;;;;;;4176673;28;20211;-76
2022/12/15 07:22:04;;;;;;;9.77;7.90;;;17.20;73.30;;;;;;4176475;28;20208;-76
2022/12/15 07:24:07;;;;;;;10.70;8.77;;;17.20;73.10;;;;;;4177464;28;20282;-76
2022/12/15 07:26:11;;;;;;;9.95;8.20;;;17.20;72.90;;;;;;4178015;28;20212;-76
2022/12/15 07:28:13;;;;;;;11.02;8.65;;;17.20;73.30;;;;;;4177433;28;20220;-76
2022/12/15 07:30:17;;;;;;;9.88;8.40;;;17.20;72.70;;;;;;4175763;28;20258;-76
2022/12/15 07:32:20;;;;;;;10.98;8.98;;;17.20;73.10;;;;;;4178042;28;20277;-76
2022/12/15 07:34:22;;;;;;;9.52;8.27;;;17.30;73.00;;;;;;4177847;28;20203;-76
2022/12/15 07:36:26;;;;;;;10.85;9.00;;;17.30;74.10;;;;;;4174853;28;20231;-76
2022/12/15 07:38:28;;;;;;;10.27;8.40;;;17.20;74.10;;;;;;4176936;28;20216;-76
2022/12/15 07:40:31;;;;;;;9.57;7.90;;;17.30;73.60;;;;;;4177748;28;20218;-76
2022/12/15 07:42:34;;;;;;;9.20;8.05;;;17.30;73.60;;;;;;4174430;28;20208;-77
2022/12/15 07:44:37;;;;;;;12.40;8.57;;;17.30;74.00;;;;;;4172276;28;20237;-75
2022/12/15 07:46:39;;;;;;;11.30;8.55;;;17.10;71.90;;;;;;4171482;28;20672;-75
2022/12/15 07:48:42;;;;;;;11.35;8.82;;;17.20;71.70;;;;;;4173581;28;20281;-75
2022/12/15 07:50:44;;;;;;;14.57;9.88;;;17.40;71.00;;;;;;4170151;28;20665;-76
2022/12/15 07:52:47;;;;;;;10.90;9.18;;;17.30;67.70;;;;;;4175130;28;20277;-78
2022/12/15 07:54:52;;;;;;;11.80;9.52;;;17.30;69.60;;;;;;4179429;28;20220;-78
2022/12/15 07:56:55;;;;;;;12.95;10.00;;;17.50;68.10;;;;;;4175459;28;20289;-77
2022/12/15 07:58:58;;;;;;;11.88;9.45;;;17.70;68.00;;;;;;4177202;28;20223;-78
2022/12/15 08:01:03;;;;;;;12.75;10.25;;;17.80;66.80;;;;;;4178020;28;20224;-80
2022/12/15 08:03:05;;;;;;;12.63;10.20;;;17.90;66.60;;;;;;4177448;28;20619;-77
2022/12/15 08:05:08;;;;;;;16.17;10.48;;;18.10;66.40;;;;;;4178730;28;20265;-80
2022/12/15 08:07:11;;;;;;;14.48;9.95;;;18.10;66.00;;;;;;4175383;28;20717;-76
2022/12/15 08:09:13;;;;;;;12.35;10.10;;;18.10;65.80;;;;;;4174297;28;20265;-80
2022/12/15 08:11:16;;;;;;;12.40;10.45;;;18.10;66.00;;;;;;4175629;28;20219;-77
2022/12/15 08:13:19;;;;;;;13.90;10.23;;;18.30;66.00;;;;;;4173213;28;20672;-78
2022/12/15 08:15:23;;;;;;;13.80;10.55;;;18.20;65.80;;;;;;4174477;28;20278;-77
2022/12/15 08:17:25;;;;;;;13.15;9.68;;;18.40;65.60;;;;;;4176760;28;20567;-77
2022/12/15 08:19:29;;;;;;;12.80;9.10;;;18.40;65.40;;;;;;4171242;28;20616;-77
2022/12/15 08:21:32;;;;;;;14.32;10.55;;;18.50;65.40;;;;;;4170285;28;20759;-82
2022/12/15 08:23:35;;;;;;;12.52;9.50;;;18.40;65.60;;;;;;4173345;28;20283;-79
2022/12/15 08:25:37;;;;;;;12.63;9.43;;;18.40;66.80;;;;;;4177912;28;20262;-80
2022/12/15 08:27:40;;;;;;;13.48;10.45;;;18.50;66.30;;;;;;4175402;28;20622;-80
2022/12/15 08:29:42;;;;;;;14.40;9.88;;;18.40;65.90;;;;;;4171676;28;20237;-80
2022/12/15 08:31:46;;;;;;;12.48;9.73;;;18.50;66.40;;;;;;4173996;28;20266;-80
2022/12/15 08:33:50;;;;;;;15.55;11.27;;;18.60;66.30;;;;;;4171661;28;20283;-82
2022/12/15 08:35:52;;;;;;;16.02;10.80;;;18.50;67.90;;;;;;4172813;28;20289;-81
2022/12/15 08:37:54;;;;;;;14.18;9.50;;;18.50;66.60;;;;;;4173809;28;20633;-81
2022/12/15 08:39:57;;;;;;;14.75;10.30;;;18.50;66.50;;;;;;4174124;28;20208;-82
2022/12/15 08:41:59;;;;;;;15.15;9.40;;;18.60;67.90;;;;;;4172382;28;20228;-82
2022/12/15 08:44:02;;;;;;;13.82;9.82;;;18.60;68.70;;;;;;4170484;28;20312;-81
2022/12/15 08:46:05;;;;;;;12.73;10.23;;;18.70;66.60;;;;;;4171032;28;20216;-79
2022/12/15 08:48:09;;;;;;;13.95;9.88;;;18.70;67.70;;;;;;4171100;28;20215;-79
2022/12/15 08:50:11;;;;;;;23.20;10.70;;;18.70;66.90;;;;;;4170469;28;20212;-78
2022/12/15 08:52:13;;;;;;;29.15;12.45;;;18.90;67.80;;;;;;4170919;28;20215;-78
2022/12/15 08:54:16;;;;;;;19.88;11.18;;;18.90;66.60;;;;;;4173136;28;20682;-79
2022/12/15 08:56:23;;;;;;;17.45;10.18;;;19.00;68.20;;;;;;4171607;28;20243;-79
2022/12/15 08:58:25;;;;;;;23.48;10.70;;;18.90;68.80;;;;;;4173253;28;20212;-78
2022/12/15 09:00:27;;;;;;;25.42;12.55;;;19.00;68.20;;;;;;4169460;28;20216;-77
2022/12/15 09:02:30;;;;;;;25.33;11.93;;;19.00;68.00;;;;;;4166918;28;20216;-77
2022/12/15 09:04:34;;;;;;;14.35;11.20;;;19.00;68.30;;;;;;4171708;28;20220;-78
2022/12/15 09:06:36;;;;;;;20.63;11.27;;;19.10;67.70;;;;;;4168617;28;20257;-78
2022/12/15 09:08:39;;;;;;;19.73;12.63;;;19.10;67.70;;;;;;4172566;28;20266;-77
2022/12/15 09:10:41;;;;;;;19.40;12.05;;;19.10;67.70;;;;;;4173758;28;20235;-78
2022/12/15 09:12:44;;;;;;;20.30;12.52;;;19.10;67.80;;;;;;4171665;28;20212;-79
2022/12/15 09:14:47;;;;;;;17.05;11.60;;;19.10;67.80;;;;;;4169018;28;20648;-79
2022/12/15 09:16:49;;;;;;;18.58;11.32;;;19.10;68.50;;;;;;4169052;28;20273;-79
2022/12/15 09:18:53;;;;;;;15.82;11.30;;;19.20;68.00;;;;;;4169227;28;20266;-79
2022/12/15 09:21:02;;;;;;;14.90;11.07;;;19.20;67.40;;;;;;4169212;28;20270;-78
2022/12/15 09:23:04;;;;;;;13.63;10.35;;;19.20;68.40;;;;;;4171774;28;20207;-76
2022/12/15 09:25:07;;;;;;;15.45;10.93;;;19.00;70.40;;;;;;4172104;28;20261;-77
2022/12/15 09:27:13;;;;;;;14.55;10.93;;;19.20;71.20;;;;;;4167976;28;20220;-77
2022/12/15 09:29:16;;;;;;;16.55;10.52;;;19.10;69.10;;;;;;4163426;28;20257;-78
2022/12/15 09:31:20;;;;;;;16.92;11.70;;;19.20;69.40;;;;;;4165586;28;20261;-78
2022/12/15 09:33:23;;;;;;;14.75;11.05;;;19.30;69.70;;;;;;4168581;28;20635;-76
2022/12/15 09:35:26;;;;;;;15.73;10.77;;;19.10;68.60;;;;;;4170033;28;20211;-77
2022/12/15 09:37:32;;;;;;;17.17;11.60;;;19.10;70.30;;;;;;4167535;28;20243;-80
2022/12/15 09:39:36;;;;;;;15.13;11.65;;;19.20;70.50;;;;;;4170276;28;20262;-77
2022/12/15 09:41:40;;;;;;;15.23;10.48;;;19.30;71.00;;;;;;4171201;28;20212;-77
2022/12/15 09:43:50;;;;;;;14.95;10.55;;;19.30;72.20;;;;;;4169760;28;20212;-79
2022/12/15 09:46:01;;;;;;;15.02;10.43;;;19.40;71.20;;;;;;4167766;28;20264;-79
2022/12/15 09:48:09;;;;;;;15.55;11.32;;;19.40;71.80;;;;;;4171163;28;20215;-79
2022/12/15 09:50:13;;;;;;;16.45;10.75;;;19.50;70.00;;;;;;4171659;28;20261;-78
2022/12/15 09:52:19;;;;;;;17.90;11.25;;;19.50;70.20;;;;;;4166501;28;20220;-75
2022/12/15 09:54:26;;;;;;;15.50;10.60;;;19.50;69.40;;;;;;4165555;28;20212;-79
2022/12/15 09:56:39;;;;;;;14.27;11.35;;;19.60;70.50;;;;;;4171792;28;20284;-79
2022/12/15 09:58:51;;;;;;;15.80;11.65;;;19.30;69.40;;;;;;4172730;28;20253;-78
2022/12/15 10:00:59;;;;;;;16.88;10.82;;;19.30;70.70;;;;;;4165067;28;20291;-77
2022/12/15 10:03:30;;;;;;;19.35;10.98;;;19.50;71.40;;;;;;4166739;28;20223;-76
2022/12/15 10:05:42;;;;;;;15.63;11.05;;;19.60;72.00;;;;;;4171746;28;20208;-82
2022/12/15 10:07:46;;;;;;;15.23;10.55;;;19.80;71.90;;;;;;4169251;28;20261;-80
2022/12/15 10:09:52;;;;;;;12.52;10.02;;;19.70;72.00;;;;;;4168587;28;20216;-79
2022/12/15 10:11:59;;;;;;;15.40;10.20;;;19.70;72.00;;;;;;4169961;28;20258;-76
2022/12/15 10:14:11;;;;;;;11.60;10.40;;;19.70;70.60;;;;;;4172495;28;20357;-79
2022/12/15 10:16:21;;;;;;;13.77;10.35;;;19.70;70.70;;;;;;4169655;28;20261;-79
2022/12/15 10:18:26;;;;;;;15.15;10.02;;;19.70;70.80;;;;;;4175066;28;20257;-79
2022/12/15 10:20:30;;;;;;;14.65;9.90;;;19.80;72.30;;;;;;4167539;28;20232;-79
2022/12/15 10:22:36;;;;;;;12.88;10.25;;;19.90;72.20;;;;;;4170450;28;20622;-78
2022/12/15 10:24:41;;;;;;;12.88;9.77;;;19.90;71.70;;;;;;4171952;28;20219;-78
2022/12/15 10:27:01;;;;;;;11.52;9.25;;;19.90;71.40;;;;;;4173849;28;20208;-77
2022/12/15 10:29:18;;;;;;;15.10;10.30;;;19.80;71.80;;;;;;4168554;28;20270;-78
2022/12/15 10:31:28;;;;;;;14.32;9.95;;;19.80;71.10;;;;;;4172930;28;20263;-78
2022/12/15 10:33:34;;;;;;;12.77;10.02;;;19.80;71.40;;;;;;4167484;28;20294;-78
2022/12/15 10:35:38;;;;;;;16.15;10.38;;;19.90;72.60;;;;;;4173034;28;20267;-77
2022/12/15 10:37:41;;;;;;;17.65;10.60;;;19.90;72.00;;;;;;4168439;28;20323;-77
2022/12/15 10:39:49;;;;;;;13.80;9.52;;;20.00;72.00;;;;;;4173366;28;20267;-76
2022/12/15 10:42:12;;;;;;;13.98;10.10;;;19.90;72.90;;;;;;4171085;28;20259;-77
2022/12/15 10:44:29;;;;;;;10.88;9.68;;;20.00;73.20;;;;;;4160951;28;20317;-78
2022/12/15 10:46:32;;;;;;;11.98;10.13;;;20.00;73.40;;;;;;4172877;28;20215;-77
2022/12/15 10:48:34;;;;;;;11.73;9.82;;;20.00;73.40;;;;;;4171961;28;20224;-77
2022/12/15 10:50:37;;;;;;;20.77;11.10;;;20.10;73.10;;;;;;4170676;28;20723;-78
2022/12/15 10:52:41;;;;;;;16.33;10.60;;;20.10;71.90;;;;;;4168126;28;20269;-78
2022/12/15 10:54:47;;;;;;;13.57;10.30;;;20.10;72.50;;;;;;4174362;28;20293;-78
2022/12/15 10:56:51;;;;;;;14.38;9.90;;;20.10;72.20;;;;;;4173539;28;20284;-80
2022/12/15 10:58:57;;;;;;;15.43;10.48;;;20.10;72.50;;;;;;4176365;28;20220;-78
2022/12/15 11:01:07;;;;;;;21.55;11.35;;;20.20;73.70;;;;;;4176185;28;20208;-76
2022/12/15 11:03:23;;;;;;;16.60;10.43;;;20.20;73.90;;;;;;4169075;28;20316;-79
2022/12/15 11:05:27;;;;;;;17.98;11.05;;;20.20;73.10;;;;;;4173173;28;20235;-77
2022/12/15 11:07:35;;;;;;;14.70;11.00;;;20.10;72.50;;;;;;4176443;28;21566;-74
2022/12/15 11:09:39;;;;;;;14.43;10.45;;;20.20;73.30;;;;;;4170202;28;20552;-76
2022/12/15 11:14:14;;;;;;;14.70;10.43;;;20.10;72.50;;;;;;4168712;28;20199;-78
2022/12/15 11:16:17;;;;;;;17.25;10.77;;;20.10;73.60;;;;;;4161444;28;20257;-77
2022/12/15 11:18:29;;;;;;;13.90;9.45;;;20.20;74.60;;;;;;4165677;28;20833;-77
2022/12/15 11:20:35;;;;;;;14.13;9.57;;;20.20;74.00;;;;;;4167200;28;20269;-76
2022/12/15 11:22:44;;;;;;;22.85;12.23;;;20.30;74.70;;;;;;4168238;28;20215;-77
2022/12/15 11:24:53;;;;;;;15.68;10.48;;;20.40;73.70;;;;;;4162943;28;20653;-78
2022/12/15 11:27:02;;;;;;;15.15;10.70;;;20.40;74.10;;;;;;4167156;28;20269;-75
2022/12/15 11:29:16;;;;;;;12.65;9.63;;;20.40;73.60;;;;;;4169574;28;20653;-77
2022/12/15 11:31:27;;;;;;;15.35;10.88;;;20.40;74.30;;;;;;4166083;28;20259;-79
2022/12/15 11:33:32;;;;;;;16.23;10.35;;;20.40;73.80;;;;;;4168772;28;20277;-82
2022/12/15 11:35:50;;;;;;;16.48;10.38;;;20.50;74.80;;;;;;4168768;28;20293;-86
2022/12/15 11:38:00;;;;;;;15.27;10.52;;;20.40;74.70;;;;;;4171029;28;20297;-82
2022/12/15 11:40:20;;;;;;;14.55;9.27;;;20.50;75.30;;;;;;4169838;28;20219;-81
2022/12/15 11:43:01;;;;;;;14.85;10.32;;;20.50;75.70;;;;;;4161029;28;20250;-81
2022/12/15 11:47:59;;;;;;;15.98;11.32;;;20.50;75.10;;;;;;4167850;28;20288;-83
2022/12/15 11:50:15;;;;;;;14.25;10.70;;;20.50;75.30;;;;;;4172470;28;20622;-82
2022/12/15 11:52:40;;;;;;;14.73;10.55;;;20.50;75.40;;;;;;4168690;28;20269;-84
2022/12/15 11:54:51;;;;;;;13.30;10.77;;;20.60;75.60;;;;;;4173404;28;20223;-82
2022/12/15 11:57:01;;;;;;;14.02;10.65;;;20.60;75.60;;;;;;4175285;28;20211;-85
2022/12/15 11:59:29;;;;;;;10.90;9.80;;;20.60;74.40;;;;;;4168577;28;20242;-81
2022/12/15 12:01:48;;;;;;;12.82;10.38;;;20.60;75.90;;;;;;4154164;28;21089;-81
2022/12/15 12:04:03;;;;;;;15.18;10.35;;;20.60;76.30;;;;;;4168804;28;20281;-78
2022/12/15 12:06:12;;;;;;;13.70;10.25;;;20.70;76.00;;;;;;4165473;28;20220;-79
2022/12/15 12:08:29;;;;;;;11.07;9.35;;;20.70;76.00;;;;;;4162732;28;20723;-77
2022/12/15 12:10:38;;;;;;;10.43;8.70;;;20.80;75.90;;;;;;4168615;28;20211;-79
2022/12/15 12:12:47;;;;;;;15.52;10.63;;;20.80;76.20;;;;;;4164894;28;20227;-76
2022/12/15 12:15:00;;;;;;;15.23;9.60;;;20.80;76.40;;;;;;4172391;28;20288;-76
2022/12/15 12:17:09;;;;;;;15.27;9.85;;;20.90;76.20;;;;;;4170504;28;20673;-76
2022/12/15 12:19:18;;;;;;;15.30;10.38;;;20.90;76.20;;;;;;4164178;28;20246;-77
2022/12/15 12:21:26;;;;;;;15.13;10.27;;;20.90;76.30;;;;;;4163317;28;20317;-80
2022/12/15 12:23:35;;;;;;;14.25;10.57;;;20.80;74.60;;;;;;4169323;28;20665;-81
2022/12/15 12:25:44;;;;;;;12.60;9.48;;;20.60;73.90;;;;;;4173457;28;20254;-82
2022/12/15 12:27:54;;;;;;;14.45;9.98;;;20.80;75.50;;;;;;4171913;28;20215;-81
2022/12/15 12:30:01;;;;;;;11.18;9.75;;;20.90;76.80;;;;;;4170822;28;20706;-80
2022/12/15 12:32:11;;;;;;;12.88;9.82;;;20.90;76.80;;;;;;4167317;28;20950;-80
2022/12/15 12:34:31;;;;;;;16.40;9.32;;;20.80;77.10;;;;;;4172388;28;20220;-80
2022/12/15 12:36:44;;;;;;;10.35;9.15;;;20.90;77.30;;;;;;4167876;28;20286;-80
2022/12/15 12:38:50;;;;;;;17.33;9.90;;;20.90;77.40;;;;;;4167379;28;20227;-82
2022/12/15 12:41:16;;;;;;;13.27;9.77;;;21.00;77.80;;;;;;4172727;28;20321;-82
2022/12/15 12:43:32;;;;;;;13.02;9.85;;;21.00;77.40;;;;;;4168749;28;20668;-81
2022/12/15 12:45:41;;;;;;;14.13;9.57;;;21.00;76.90;;;;;;4170039;28;20224;-84
2022/12/15 12:47:50;;;;;;;15.13;9.95;;;21.00;77.20;;;;;;4171507;28;20680;-80
2022/12/15 12:49:58;;;;;;;12.10;9.18;;;21.00;77.80;;;;;;4170854;28;20274;-81
2022/12/15 12:52:03;;;;;;;13.32;9.80;;;21.00;77.80;;;;;;4169724;28;20214;-80
2022/12/15 12:54:48;;;;;;;13.32;9.80;;;21.00;77.70;;;;;;4166906;28;20266;-80
2022/12/15 12:56:50;;;;;;;10.52;9.35;;;21.00;77.80;;;;;;4167805;28;20220;-82
2022/12/15 12:58:52;;;;;;;12.52;9.50;;;21.10;77.30;;;;;;4169858;28;20261;-80
2022/12/15 13:01:06;;;;;;;13.48;9.48;;;21.10;77.70;;;;;;4168233;28;20622;-83
2022/12/15 13:03:21;;;;;;;11.73;9.88;;;21.10;78.20;;;;;;4169529;28;20278;-84
2022/12/15 13:05:36;;;;;;;11.32;9.25;;;21.10;77.90;;;;;;4168908;28;20203;-83